Malaysia Virtual Airlines Airport Information Service

Paris - Charles-de-Gaulle

ICAO: LFPG Country: France
Latitude: 49.0128 Longitude: 2.55
Latest Arrival : MC20 (WMKK-LFPG) Latest Departure : MH9413 (LFPG-KJFK)


WX CaptureLIVE
Data provided by noaa.gov | Fetched at 07:40:06

METAR : LFPG 160700Z 01009KT 360V080 CAVOK 05/M01 Q1027 NOSIG

TAF : LFPG 160500Z 1606/1712 02008KT CAVOK TX12/1712Z TN01/1606Z TEMPO 1612/1617 02015G25KT


Runway Data for LFPG
Data provided by openaviationdata.com

Runway ID Mag Var Hdg Length Elevation Surface ILS Freq ILS Id ILS Slope
08L -2 87° 13944 ft 392 ft Macadam 108.7 GLE 3
08R -2 87° 8832 ft 392 ft Concrete 108.55 DSE 3
09L -2 87° 8840 ft 392 ft Tarmac 109.35 PNE 3
09R -2 87° 13780 ft 392 ft Macadam 110.1 CGE 3
26L -2 267° 8832 ft 392 ft Concrete 108.35 DSU 3
26R -2 267° 13944 ft 392 ft Macadam 109.1 GAU 3
27L -2 267° 13780 ft 392 ft Macadam 110.7 CGW 3
27R -2 267° 8840 ft 392 ft Tarmac 110.35 PNW 3

Paris - Charles-de-Gaulle, France
Use only for reference purposes



Not for navigational purposes.